createdAt,value
2019-03-25T18:59:20.883Z,61.10
2019-03-25T19:01:54.502Z,56.98
2019-03-25T19:04:19.780Z,53.60
2019-03-25T19:06:48.279Z,53.42
2019-03-25T19:09:17.012Z,51.30
2019-03-25T19:11:45.521Z,53.95
2019-03-25T19:14:13.966Z,56.13
2019-03-25T19:16:42.470Z,48.68
2019-03-25T19:19:10.893Z,50.83
2019-03-25T19:21:39.361Z,52.83
2019-03-25T19:24:08.168Z,54.55
2019-03-25T19:26:36.656Z,48.60
2019-03-25T19:29:05.478Z,50.00
2019-03-25T19:31:33.951Z,49.88
2019-03-25T19:34:02.610Z,48.83
2019-03-25T19:36:31.089Z,50.85
2019-03-25T19:38:59.823Z,49.93
2019-03-25T19:41:32.472Z,42.73
2019-03-25T19:43:58.345Z,45.15
2019-03-25T19:46:26.770Z,45.78
2019-03-25T19:48:55.244Z,44.53
2019-03-25T19:51:23.668Z,45.70
2019-03-25T19:53:52.444Z,39.38
2019-03-25T19:56:20.849Z,43.40
2019-03-25T19:58:49.278Z,41.63
2019-03-25T20:01:17.785Z,41.35
2019-03-25T20:03:46.706Z,45.35
2019-03-25T20:27:25.773Z,7.58
2019-03-25T20:29:54.336Z,7.08
2019-03-25T20:32:31.677Z,6.97
2019-03-25T20:34:53.184Z,8.20
2019-03-25T20:37:21.620Z,6.08
2019-03-25T20:39:50.083Z,11.53
2019-03-25T20:42:18.485Z,15.32
2019-03-25T20:44:47.256Z,10.38
2019-03-25T20:47:15.696Z,12.13
2019-03-25T20:49:44.137Z,7.62
2019-03-25T20:52:12.930Z,9.63
2019-03-25T20:54:41.397Z,9.80
2019-03-25T20:57:09.859Z,6.97
2019-03-25T20:59:38.301Z,9.68
2019-03-25T21:02:06.746Z,8.23
2019-03-25T21:04:35.309Z,6.95
2019-03-25T21:07:04.183Z,11.22
2019-03-25T21:09:33.581Z,10.28
2019-03-25T21:12:02.032Z,7.70
2019-03-25T21:14:30.453Z,8.90
2019-03-25T21:16:58.975Z,9.18
2019-03-25T21:19:27.497Z,8.53
2019-03-25T21:21:56.034Z,7.72
2019-03-25T21:24:25.993Z,8.90
2019-03-25T21:26:54.748Z,7.90
2019-03-25T21:29:23.257Z,11.05
2019-03-25T21:31:52.107Z,10.05
2019-03-25T21:34:20.918Z,8.00
2019-03-25T21:36:49.773Z,10.70
2019-03-25T21:39:18.368Z,7.17
2019-03-25T21:41:46.832Z,8.10
2019-03-25T21:44:15.390Z,11.75
2019-03-25T21:46:44.021Z,8.83
2019-03-25T21:49:12.651Z,7.70
2019-03-25T21:51:41.605Z,10.43
2019-03-25T21:54:10.085Z,6.35
2019-03-25T21:56:38.543Z,7.03
2019-03-25T21:59:07.026Z,6.85
2019-03-25T22:01:38.307Z,11.68
2019-03-25T22:04:07.054Z,12.65
2019-03-25T22:06:35.954Z,5.75
2019-03-25T22:09:05.436Z,7.58
2019-03-25T22:11:34.106Z,9.70
2019-03-25T22:14:02.877Z,6.03
2019-03-25T22:16:31.678Z,7.28
2019-03-25T22:19:00.424Z,8.10
2019-03-25T22:21:28.857Z,8.85
2019-03-25T22:23:57.290Z,5.65
2019-03-25T22:26:25.771Z,7.22
2019-03-25T22:28:54.832Z,6.78
2019-03-25T22:31:23.561Z,6.80
2019-03-25T22:33:52.032Z,8.73
2019-03-25T22:36:20.476Z,8.13
2019-03-25T22:38:49.144Z,8.33
2019-03-25T22:41:17.555Z,5.87
2019-03-25T22:43:45.978Z,7.53
2019-03-25T22:46:14.449Z,9.08
2019-03-25T22:48:42.940Z,5.60
2019-03-25T22:51:11.374Z,6.03
2019-03-25T22:53:39.775Z,9.98
2019-03-25T22:56:08.520Z,6.28
2019-03-25T22:58:36.928Z,8.08
2019-03-25T23:01:05.732Z,7.50
2019-03-25T23:03:39.483Z,8.05
2019-03-25T23:06:04.585Z,10.30
2019-03-25T23:08:33.038Z,10.70
2019-03-25T23:11:01.509Z,9.53
2019-03-25T23:13:29.931Z,7.75
2019-03-25T23:15:58.348Z,11.18
2019-03-25T23:18:26.788Z,10.78
2019-03-25T23:20:55.256Z,13.40
2019-03-25T23:23:23.952Z,9.90
2019-03-25T23:25:52.651Z,7.10
2019-03-25T23:28:21.144Z,8.90
2019-03-25T23:30:49.555Z,9.78
2019-03-25T23:33:18.039Z,7.10
2019-03-25T23:35:46.508Z,8.48
2019-03-25T23:38:15.305Z,10.45
2019-03-25T23:40:43.741Z,12.23
2019-03-25T23:43:12.446Z,8.13
2019-03-25T23:45:40.876Z,9.63
2019-03-25T23:48:09.271Z,10.50
2019-03-25T23:50:37.686Z,10.78
2019-03-25T23:53:06.100Z,10.72
2019-03-25T23:55:34.863Z,10.32
2019-03-25T23:58:03.541Z,11.57
